Terminal Aerodrome Forecast
Issued by NWS Corpus Christi, TX

Home | Current Version | Previous Version | Text Only | Print | Product List | Glossary On
Versions: 1 2 3 4 5 6 7 8 9 10 11 12 13 14 15 16 17 18 19
000
FTUS44 KCRP 021300 AAA
TAFCRP
TAF AMD
KCRP 021326Z 0213/0312 01010KT 2SM -DZ BR OVC003
      TEMPO 0213/0216 1SM -DZ BR OVC002
     FM021800 02010KT 4SM -DZ OVC004
     FM030100 06008KT 2SM BR OVC004=

USA.gov is the U.S. government's official web portal to all federal, state and local government web resources and services.